| time (UTC) | temp F | wind direction | speed MPH | gust MPH | rain 1hr in | rain 24hr in | rain mn in | humidity % | barometer mb |
| 20260504050322 | 40 | 269 | 0.0 | 0.0 | 0.00 | 0.00 | 0.00 | 77 | 1016.4 |
| 20260504045329 | 40 | 269 | 0.0 | 0.0 | 0.00 | 0.00 | 0.00 | 77 | 1016.4 |
| 20260504044822 | 40 | 269 | 0.0 | 0.0 | 0.00 | 0.00 | 0.00 | 77 | 1016.4 |
| 20260504043830 | 40 | 269 | 0.0 | 1.0 | 0.00 | 0.00 | 0.00 | 76 | 1016.2 |
| 20260504043323 | 40 | 269 | 0.0 | 2.0 | 0.00 | 0.00 | 0.00 | 77 | 1016.3 |
| 20260504040819 | 40 | 269 | 0.0 | 2.0 | 0.00 | 0.00 | 0.00 | 76 | 1016.2 |
| 20260504040331 | 40 | 269 | 1.0 | 2.0 | 0.00 | 0.00 | 0.00 | 76 | 1016.1 |
| 20260504035845 | 40 | 269 | 1.0 | 2.0 | 0.00 | 0.00 | 0.00 | 74 | 1016.2 |
| 20260504034346 | 40 | 269 | 0.0 | 1.0 | 0.00 | 0.00 | 0.00 | 72 | 1016.1 |
| 20260504033838 | 41 | 269 | 0.0 | 0.0 | 0.00 | 0.00 | 0.00 | 73 | 1016.1 |
| 20260504033315 | 41 | 269 | 0.0 | 1.0 | 0.00 | 0.00 | 0.00 | 72 | 1016.1 |
| 20260504032904 | 41 | 269 | 0.0 | 3.0 | 0.00 | 0.00 | 0.00 | 72 | 1016.1 |
| 20260504032341 | 41 | 269 | 1.0 | 3.0 | 0.00 | 0.00 | 0.00 | 73 | 1016.0 |
| 20260504031349 | 41 | 269 | 0.0 | 2.0 | 0.00 | 0.00 | 0.00 | 72 | 1015.9 |
| 20260504030843 | 40 | 269 | 1.0 | 1.0 | 0.00 | 0.00 | 0.00 | 72 | 1015.9 |
| 20260504030336 | 40 | 269 | 1.0 | 1.0 | 0.00 | 0.00 | 0.00 | 71 | 1016.0 |
| 20260504025830 | 40 | 269 | 0.0 | 1.0 | 0.00 | 0.00 | 0.00 | 70 | 1016.0 |
| 20260504025403 | 41 | 269 | 0.0 | 1.0 | 0.00 | 0.00 | 0.00 | 70 | 1016.0 |
| 20260504024856 | 40 | 269 | 0.0 | 1.0 | 0.00 | 0.00 | 0.00 | 68 | 1016.0 |
| 20260504024332 | 41 | 269 | 0.0 | 0.0 | 0.00 | 0.00 | 0.00 | 68 | 1016.0 |
| 20260504023339 | 40 | 269 | 0.0 | 0.0 | 0.00 | 0.00 | 0.00 | 68 | 1016.1 |
| 20260504022832 | 40 | 269 | 0.0 | 1.0 | 0.00 | 0.00 | 0.00 | 67 | 1016.1 |
| 20260504022406 | 40 | 269 | 0.0 | 1.0 | 0.00 | 0.00 | 0.00 | 67 | 1016.1 |
| 20260504021858 | 40 | 269 | 0.0 | 1.0 | 0.00 | 0.00 | 0.00 | 66 | 1016.1 |
| 20260504020314 | 41 | 269 | 0.0 | 2.0 | 0.00 | 0.00 | 0.00 | 70 | 1016.1 |
| 20260504015848 | 41 | 269 | 1.0 | 2.0 | 0.00 | 0.00 | 0.00 | 69 | 1016.1 |
| 20260504015340 | 42 | 269 | 0.0 | 2.0 | 0.00 | 0.00 | 0.00 | 69 | 1016.1 |
| 20260504014833 | 42 | 269 | 1.0 | 2.0 | 0.00 | 0.00 | 0.00 | 68 | 1016.1 |
| 20260504014406 | 43 | 269 | 0.0 | 1.0 | 0.00 | 0.00 | 0.00 | 66 | 1016.0 |
| 20260504013859 | 43 | 269 | 0.0 | 0.0 | 0.00 | 0.00 | 0.00 | 63 | 1015.8 |
| 20260504013351 | 44 | 269 | 0.0 | 2.0 | 0.00 | 0.00 | 0.00 | 60 | 1015.7 |
| 20260504012845 | 44 | 269 | 0.0 | 2.0 | 0.00 | 0.00 | 0.00 | 57 | 1015.7 |
| 20260504012321 | 45 | 269 | 0.0 | 1.0 | 0.00 | 0.00 | 0.00 | 54 | 1015.8 |
| 20260504011854 | 45 | 269 | 0.0 | 1.0 | 0.00 | 0.00 | 0.00 | 55 | 1015.8 |
| 20260504010904 | 45 | 269 | 0.0 | 1.0 | 0.00 | 0.00 | 0.00 | 55 | 1015.7 |
| 20260504010356 | 45 | 269 | 0.0 | 0.0 | 0.00 | 0.00 | 0.00 | 56 | 1015.6 |
| 20260504005324 | 46 | 269 | 0.0 | 2.0 | 0.00 | 0.00 | 0.00 | 54 | 1015.3 |
| 20260504004818 | 46 | 269 | 1.0 | 2.0 | 0.00 | 0.00 | 0.00 | 51 | 1015.3 |
| 20260504003824 | 47 | 269 | 0.0 | 4.0 | 0.00 | 0.00 | 0.00 | 48 | 1015.3 |
| 20260504003356 | 47 | 269 | 1.0 | 4.0 | 0.00 | 0.00 | 0.00 | 47 | 1015.4 |
| 20260504002849 | 48 | 277 | 1.0 | 2.0 | 0.00 | 0.00 | 0.00 | 48 | 1015.4 |
| 20260504002343 | 48 | 277 | 0.0 | 1.0 | 0.00 | 0.00 | 0.00 | 46 | 1015.2 |
| 20260504001835 | 49 | 278 | 0.0 | 2.0 | 0.00 | 0.00 | 0.00 | 47 | 1015.0 |
| 20260504001329 | 49 | 277 | 0.0 | 3.0 | 0.00 | 0.00 | 0.00 | 45 | 1015.2 |
| 20260504000401 | 49 | 277 | 1.0 | 4.0 | 0.00 | 0.00 | 0.00 | 44 | 1015.3 |
| 20260503235850 | 50 | 276 | 2.0 | 4.0 | 0.00 | 0.00 | 0.00 | 43 | 1015.3 |
| 20260503235327 | 50 | 297 | 0.0 | 5.0 | 0.00 | 0.00 | 0.00 | 43 | 1015.2 |
| 20260503234901 | 50 | 265 | 1.0 | 6.0 | 0.00 | 0.00 | 0.00 | 43 | 1015.2 |
| 20260503234352 | 51 | 264 | 2.0 | 6.0 | 0.00 | 0.00 | 0.00 | 42 | 1015.1 |
| 20260503233845 | 51 | 259 | 4.0 | 9.0 | 0.00 | 0.00 | 0.00 | 41 | 1015.4 |
| 20260503233338 | 51 | 302 | 3.0 | 9.0 | 0.00 | 0.00 | 0.00 | 41 | 1015.5 |
| 20260503232831 | 52 | 281 | 3.0 | 8.0 | 0.00 | 0.00 | 0.00 | 39 | 1015.4 |
| 20260503232405 | 52 | 248 | 2.0 | 7.0 | 0.00 | 0.00 | 0.00 | 40 | 1015.4 |
| 20260503231857 | 53 | 244 | 3.0 | 7.0 | 0.00 | 0.00 | 0.00 | 38 | 1015.3 |
| 20260503231335 | 53 | 281 | 4.0 | 10.0 | 0.00 | 0.00 | 0.00 | 38 | 1015.2 |
| 20260503230828 | 54 | 243 | 5.0 | 10.0 | 0.00 | 0.00 | 0.00 | 38 | 1015.5 |
| 20260503230402 | 54 | 285 | 5.0 | 11.0 | 0.00 | 0.00 | 0.00 | 37 | 1015.5 |
| 20260503225352 | 55 | 277 | 4.0 | 9.0 | 0.00 | 0.00 | 0.00 | 35 | 1015.6 |
| 20260503224846 | 55 | 239 | 4.0 | 8.0 | 0.00 | 0.00 | 0.00 | 36 | 1015.7 |
| 20260503224336 | 55 | 288 | 3.0 | 10.0 | 0.00 | 0.00 | 0.00 | 39 | 1015.7 |
| 20260503223814 | 55 | 233 | 3.0 | 10.0 | 0.00 | 0.00 | 0.00 | 34 | 1015.6 |
| 20260503223347 | 55 | 290 | 4.0 | 12.0 | 0.00 | 0.00 | 0.00 | 37 | 1015.6 |
| 20260503222840 | 56 | 210 | 5.0 | 12.0 | 0.00 | 0.00 | 0.00 | 38 | 1015.6 |
| 20260503222334 | 56 | 297 | 3.0 | 8.0 | 0.00 | 0.00 | 0.00 | 39 | 1015.6 |
| 20260503221826 | 56 | 233 | 5.0 | 10.0 | 0.00 | 0.00 | 0.00 | 39 | 1015.6 |
| 20260503220856 | 56 | 308 | 5.0 | 11.0 | 0.00 | 0.00 | 0.00 | 38 | 1015.6 |
| 20260503220350 | 56 | 276 | 4.0 | 14.0 | 0.00 | 0.00 | 0.00 | 37 | 1015.5 |
| 20260503215827 | 56 | 228 | 8.0 | 14.0 | 0.00 | 0.00 | 0.00 | 35 | 1015.5 |
| 20260503215321 | 56 | 254 | 2.0 | 6.0 | 0.00 | 0.00 | 0.00 | 35 | 1015.6 |
| 20260503214814 | 56 | 174 | 3.0 | 7.0 | 0.00 | 0.00 | 0.00 | 36 | 1015.6 |
| 20260503213841 | 56 | 318 | 4.0 | 10.0 | 0.00 | 0.00 | 0.00 | 35 | 1015.6 |
| 20260503213335 | 56 | 262 | 4.0 | 11.0 | 0.00 | 0.00 | 0.00 | 39 | 1015.6 |
| 20260503212828 | 56 | 283 | 4.0 | 11.0 | 0.00 | 0.00 | 0.00 | 40 | 1015.7 |
| 20260503212401 | 56 | 274 | 4.0 | 13.0 | 0.00 | 0.00 | 0.00 | 38 | 1015.7 |
| 20260503211854 | 56 | 268 | 6.0 | 13.0 | 0.00 | 0.00 | 0.00 | 42 | 1015.7 |
| 20260503211331 | 56 | 192 | 4.0 | 9.0 | 0.00 | 0.00 | 0.00 | 39 | 1015.7 |
| 20260503210401 | 56 | 245 | 7.0 | 13.0 | 0.00 | 0.00 | 0.00 | 38 | 1015.8 |
| 20260503205853 | 56 | 305 | 5.0 | 11.0 | 0.00 | 0.00 | 0.00 | 42 | 1015.8 |
| 20260503204901 | 56 | 168 | 4.0 | 14.0 | 0.00 | 0.00 | 0.00 | 38 | 1015.8 |
| 20260503204354 | 56 | 229 | 5.0 | 13.0 | 0.00 | 0.00 | 0.00 | 39 | 1015.8 |
| 20260503203846 | 56 | 264 | 6.0 | 10.0 | 0.00 | 0.00 | 0.00 | 41 | 1015.9 |
| 20260503203322 | 56 | 221 | 5.0 | 10.0 | 0.00 | 0.00 | 0.00 | 42 | 1016.0 |
| 20260503202856 | 56 | 174 | 4.0 | 8.0 | 0.00 | 0.00 | 0.00 | 39 | 1016.0 |
| 20260503202349 | 56 | 331 | 4.0 | 11.0 | 0.00 | 0.00 | 0.00 | 38 | 1016.0 |
| 20260503201843 | 55 | 249 | 5.0 | 11.0 | 0.00 | 0.00 | 0.00 | 43 | 1016.1 |
| 20260503201335 | 55 | 238 | 5.0 | 9.0 | 0.00 | 0.00 | 0.00 | 42 | 1016.0 |
| 20260503200829 | 55 | 323 | 2.0 | 6.0 | 0.00 | 0.00 | 0.00 | 40 | 1016.1 |
| 20260503200319 | 55 | 234 | 2.0 | 9.0 | 0.00 | 0.00 | 0.00 | 41 | 1016.2 |
| 20260503195330 | 55 | 227 | 7.0 | 12.0 | 0.00 | 0.00 | 0.00 | 41 | 1016.5 |
| 20260503194903 | 54 | 23 | 4.0 | 10.0 | 0.00 | 0.00 | 0.00 | 39 | 1016.5 |
| 20260503193829 | 53 | 356 | 4.0 | 12.0 | 0.00 | 0.00 | 0.00 | 40 | 1016.6 |
| 20260503193321 | 54 | 18 | 5.0 | 11.0 | 0.00 | 0.00 | 0.00 | 39 | 1016.7 |
| 20260503192914 | 55 | 271 | 4.0 | 11.0 | 0.00 | 0.00 | 0.00 | 37 | 1016.8 |
| 20260503192403 | 55 | 306 | 6.0 | 10.0 | 0.00 | 0.00 | 0.00 | 42 | 1016.9 |
| 20260503191855 | 55 | 267 | 2.0 | 8.0 | 0.00 | 0.00 | 0.00 | 42 | 1016.8 |
| 20260503191346 | 54 | 179 | 3.0 | 12.0 | 0.00 | 0.00 | 0.00 | 45 | 1017.1 |
| 20260503190840 | 53 | 1 | 6.0 | 12.0 | 0.00 | 0.00 | 0.00 | 42 | 1017.1 |
| 20260503190317 | 54 | 6 | 4.0 | 8.0 | 0.00 | 0.00 | 0.00 | 42 | 1017.2 |
| 20260503185850 | 53 | 14 | 3.0 | 10.0 | 0.00 | 0.00 | 0.00 | 45 | 1017.2 |
| 20260503184858 | 53 | 309 | 2.0 | 8.0 | 0.00 | 0.00 | 0.00 | 49 | 1017.4 |
| 20260503184350 | 53 | 46 | 3.0 | 10.0 | 0.00 | 0.00 | 0.00 | 43 | 1017.4 |
| 20260503183842 | 53 | 1 | 5.0 | 10.0 | 0.00 | 0.00 | 0.00 | 44 | 1017.3 |
| 20260503183336 | 52 | 208 | 2.0 | 9.0 | 0.00 | 0.00 | 0.00 | 43 | 1017.5 |
| 20260503182829 | 52 | 265 | 6.0 | 10.0 | 0.00 | 0.00 | 0.00 | 44 | 1017.5 |
| 20260503182403 | 52 | 241 | 3.0 | 11.0 | 0.00 | 0.00 | 0.00 | 46 | 1017.6 |
| 20260503181355 | 53 | 217 | 1.0 | 7.0 | 0.00 | 0.00 | 0.00 | 50 | 1017.7 |
| 20260503180848 | 52 | 309 | 4.0 | 10.0 | 0.00 | 0.00 | 0.00 | 46 | 1017.8 |
| 20260503180341 | 52 | 278 | 5.0 | 10.0 | 0.00 | 0.00 | 0.00 | 40 | 1017.8 |
| 20260503175834 | 52 | 6 | 2.0 | 7.0 | 0.00 | 0.00 | 0.00 | 48 | 1017.8 |
| 20260503175327 | 51 | 260 | 3.0 | 12.0 | 0.00 | 0.00 | 0.00 | 49 | 1017.9 |
| 20260503174820 | 51 | 252 | 6.0 | 12.0 | 0.00 | 0.00 | 0.00 | 47 | 1018.0 |
| 20260503173830 | 50 | 289 | 3.0 | 13.0 | 0.00 | 0.00 | 0.00 | 45 | 1017.9 |
| 20260503173404 | 50 | 249 | 4.0 | 9.0 | 0.00 | 0.00 | 0.00 | 51 | 1018.0 |
| 20260503172856 | 50 | 307 | 3.0 | 10.0 | 0.00 | 0.00 | 0.00 | 49 | 1018.1 |
| 20260503172348 | 50 | 272 | 4.0 | 12.0 | 0.00 | 0.00 | 0.00 | 50 | 1018.2 |
| 20260503171842 | 50 | 250 | 4.0 | 10.0 | 0.00 | 0.00 | 0.00 | 50 | 1018.3 |
| 20260503171335 | 50 | 352 | 2.0 | 10.0 | 0.00 | 0.00 | 0.00 | 49 | 1018.2 |
| 20260503170828 | 50 | 262 | 4.0 | 10.0 | 0.00 | 0.00 | 0.00 | 46 | 1018.3 |
| 20260503170402 | 50 | 302 | 4.0 | 10.0 | 0.00 | 0.00 | 0.00 | 50 | 1018.5 |
| 20260503150817 | 44 | 198 | 2.0 | 8.0 | 0.00 | 0.00 | 0.00 | 58 | 1019.1 |
| 20260503131349 | 40 | 194 | 2.0 | 6.0 | 0.00 | 0.00 | 0.00 | 66 | 1018.8 |
| 20260503130843 | 39 | 236 | 3.0 | 8.0 | 0.00 | 0.00 | 0.00 | 67 | 1018.8 |
| 20260503130335 | 39 | 14 | 4.0 | 8.0 | 0.00 | 0.00 | 0.00 | 67 | 1018.6 |
| 20260503110828 | 28 | 281 | 0.0 | 2.0 | 0.00 | 0.00 | 0.00 | 94 | 1017.4 |
| 20260503110402 | 28 | 281 | 0.0 | 2.0 | 0.00 | 0.00 | 0.00 | 94 | 1017.3 |
| 20260503081343 | 31 | 307 | 2.0 | 3.0 | 0.00 | 0.00 | 0.00 | 87 | 1015.6 |
| 20260503080835 | 31 | 53 | 1.0 | 5.0 | 0.00 | 0.00 | 0.00 | 86 | 1015.7 |
| 20260503080329 | 32 | 275 | 1.0 | 5.0 | 0.00 | 0.00 | 0.00 | 85 | 1015.6 |
| 20260503072841 | 33 | 359 | 2.0 | 5.0 | 0.00 | 0.00 | 0.00 | 82 | 1015.5 |
| 20260503072334 | 33 | 295 | 2.0 | 5.0 | 0.00 | 0.00 | 0.00 | 82 | 1015.5 |
| 20260503071827 | 34 | 330 | 1.0 | 4.0 | 0.00 | 0.00 | 0.00 | 82 | 1015.4 |
| 20260503071402 | 34 | 39 | 2.0 | 6.0 | 0.00 | 0.00 | 0.00 | 81 | 1015.4 |
| 20260503070854 | 34 | 324 | 3.0 | 6.0 | 0.00 | 0.00 | 0.00 | 81 | 1015.4 |